Flight Track Log - Related Links

Times and Time Zones

All times are in EDT time to prevent confusion due to time zone crossing. See the CPT8773 flight status page for this flight to view local times or setup timezone preferences in your user account.

Time Position Orientation Groundspeed Altitude Reporting Facility
EDT Latitude Longitude Course Direction KTS MPH feet Rate Location/Type
Fri 10:29:03 AM 42.9467 -106.3825 313° West 114 131 7,000  Level Salt Lake Center
Fri 10:30:04 AM 42.9775 -106.3925 347° North 120 138 7,500 585 Climbing Salt Lake Center
Fri 10:31:06 AM 43.0131 -106.4167 334° Northwest 125 144 8,200 629 Climbing Salt Lake Center
Fri 10:32:08 AM 43.0431 -106.4369 334° Northwest 126 145 8,800 537 Climbing Salt Lake Center
Fri 10:33:00 AM 43.5517 -107.4591 313° West  Level Estimated
Fri 10:33:09 AM 43.0739 -106.4547 337° Northwest 126 145 9,300  Level Salt Lake Center
Fri 10:34:00 AM 43.5808 -107.5048 313° West  Level Estimated
Fri 10:34:11 AM 43.1092 -106.4753 337° Northwest 124 143 9,900  Level Salt Lake Center
Fri 10:35:13 AM 43.1403 -106.4906 340° North 124 143 10,300 439 Climbing Salt Lake Center
Fri 10:36:14 AM 43.1789 -106.5092 341° North 126 145 10,800 448 Climbing Salt Lake Center
Fri 10:37:27 AM 43.2169 -106.5258 342° North 129 148 11,300 489 Climbing Denver Center
Fri 10:38:29 AM 43.2436 -106.5633 314° West 125 144 11,900 387 Climbing Denver Center
Fri 10:39:31 AM 43.2600 -106.6019 300° West 121 139 12,100 106 Climbing Denver Center
Fri 10:40:22 AM 43.2778 -106.6364 305° West 130 150 12,100 -53 Level Salt Lake Center
Fri 10:41:24 AM 43.3072 -106.6853 310° West 144 166 12,000 -49 Descending Salt Lake Center
Fri 10:42:25 AM 43.3297 -106.7308 304° West 150 173 12,000  Level Salt Lake Center
Fri 10:43:27 AM 43.3589 -106.7844 307° West 155 178 12,000  Level Salt Lake Center
Fri 10:44:29 AM 43.3853 -106.8297 309° West 158 182 12,000  Level Salt Lake Center
Fri 10:45:31 AM 43.4136 -106.8842 306° West 157 181 12,000  Level Salt Lake Center
Fri 10:46:33 AM 43.4356 -106.9278 305° West 158 182 12,000  Level Salt Lake Center
Fri 10:47:34 AM 43.4667 -106.9869 306° West 159 183 12,000  Level Salt Lake Center
Fri 10:48:36 AM 43.4900 -107.0403 301° West 161 185 12,000  Level Salt Lake Center
Fri 10:49:38 AM 43.5133 -107.0922 302° West 161 185 12,000  Level Salt Lake Center
Fri 10:50:40 AM 43.5397 -107.1431 306° West 162 186 12,000  Level Salt Lake Center
Fri 10:51:42 AM 43.5667 -107.1922 307° West 162 186 12,000  Level Salt Lake Center
Fri 10:52:44 AM 43.5928 -107.2411 306° West 159 183 12,000  Level Salt Lake Center
Fri 10:53:46 AM 43.6183 -107.2900 306° West 158 182 12,000  Level Salt Lake Center
Fri 10:54:47 AM 43.6497 -107.3483 307° West 158 182 12,000 32 Level Salt Lake Center
Fri 10:56:51 AM 43.7003 -107.4469 305° West 158 182 12,100 32 Climbing Salt Lake Center
Fri 10:57:53 AM 43.7267 -107.4958 307° West 158 182 12,100  Level Salt Lake Center
Fri 10:58:55 AM 43.7517 -107.5461 305° West 158 182 12,100  Level Salt Lake Center
Fri 10:59:57 AM 43.7778 -107.5981 305° West 161 185 12,100  Level Salt Lake Center
Fri 11:00:59 AM 43.8139 -107.6556 311° West 164 189 12,100  Level Salt Lake Center
Fri 11:02:01 AM 43.8472 -107.7000 316° Northwest 165 190 12,100  Level Salt Lake Center
Fri 11:03:03 AM 43.8811 -107.7422 318° Northwest 165 190 12,100  Level Salt Lake Center
Fri 11:04:05 AM 43.9153 -107.7858 317° Northwest 166 191 12,100 -49 Level Salt Lake Center
Fri 11:05:06 AM 43.9494 -107.8303 317° Northwest 167 192 12,000  Descending Salt Lake Center
Fri 11:06:08 AM 43.9822 -107.8753 315° West 167 192 12,100 48 Climbing Salt Lake Center
Fri 11:07:10 AM 44.0142 -107.9192 315° West 165 190 12,100  Level Salt Lake Center
Fri 11:08:12 AM 44.0544 -107.9722 317° Northwest 165 190 12,100  Level Salt Lake Center
Fri 11:09:14 AM 44.0881 -108.0161 317° Northwest 165 190 12,100  Level Salt Lake Center
Fri 11:10:16 AM 44.1203 -108.0608 315° West 165 190 12,100  Level Salt Lake Center
Fri 11:11:18 AM 44.1533 -108.1050 316° Northwest 165 190 12,100 -48 Level Salt Lake Center
Fri 11:12:20 AM 44.1858 -108.1492 316° Northwest 164 189 12,000 -194 Descending Salt Lake Center
Fri 11:13:22 AM 44.2192 -108.1939 316° Northwest 165 190 11,700 -290 Descending Salt Lake Center
Fri 11:14:24 AM 44.2636 -108.2492 318° Northwest 171 197 11,400 -290 Descending Salt Lake Center
Fri 11:15:26 AM 44.2981 -108.2967 315° West 173 199 11,100 -242 Descending Salt Lake Center
Fri 11:16:28 AM 44.3325 -108.3439 316° Northwest 174 200 10,900 -242 Descending Salt Lake Center
Fri 11:17:30 AM 44.3667 -108.3892 317° Northwest 172 198 10,600 -242 Descending Salt Lake Center
Fri 11:18:32 AM 44.3992 -108.4333 316° Northwest 169 194 10,400 -194 Descending Salt Lake Center
Fri 11:19:34 AM 44.4325 -108.4772 317° Northwest 166 191 10,200 -339 Descending Salt Lake Center
Fri 11:20:36 AM 44.4656 -108.5236 315° West 166 191 9,700 -484 Descending Salt Lake Center
Fri 11:21:38 AM 44.5078 -108.5792 317° Northwest 170 196 9,200 -339 Descending Salt Lake Center
Fri 11:22:40 AM 44.5411 -108.6258 315° West 171 197 9,000 -97 Descending Salt Lake Center
Fri 11:23:42 AM 44.5714 -108.6669 316° Northwest 164 189 9,000 -48 Level Salt Lake Center
Fri 11:24:44 AM 44.6025 -108.7056 319° Northwest 156 180 8,900 -435 Descending Salt Lake Center
Fri 11:25:46 AM 44.6400 -108.7408 326° Northwest 156 180 8,100 -435 Descending Salt Lake Center
Fri 11:26:48 AM 44.6528 -108.7903 290° West 155 178 8,000 -290 Descending Salt Lake Center
Fri 11:27:50 AM 44.6225 -108.8511 235° Southwest 156 180 7,500 -290 Descending Salt Lake Center
Fri 11:28:52 AM 44.5919 -108.8967 227° Southwest 158 182 7,400 -532 Descending Salt Lake Center
Fri 11:29:54 AM 44.5667 -108.9408 231° Southwest 154 177 6,400 -774 Descending Salt Lake Center
Fri 11:30:56 AM 44.5417 -108.9858 232° Southwest 148 170 5,800 -581 Descending Salt Lake Center
Fri 11:32:00 AM 44.5167 -109.0167 241° Southwest  Level FlightAware Approximate

Login

Don't have an account? Register now (free) for customized features, flight alerts, and more!